Graycious — WDI7772 — position and weather

sailwx.info

Track history (hours):
 
Tides and Currents Weather Stations Pressure Air Temp Water Temp Dewpoint Dewpoint Depression Visibility Wind Speed Wind Dir Waves Ship Positions

Graycious

Owner: Noble Marine LLC, Lighthouse Point, FL. More information available from US FCC via Universal Licensing System and Coast Guard Vessel Documentation Center.

Last reported at 2018-Jun-06 00:17 UTC. Time now 2018-Jun-24 22:31 UTC.
Position N 34°30' W 076°37'.
Warning: this ship's position is 18 days out of date.

Length 21 m.

Type: Sailing vessel. MMSI: 367732080.

Date/timePositionNaut miles runAvg speedWind from/ knotsBaromVisibWave heightAir tempDewpointWater temp
2018-Jun-06 00:17N 34°30' W 076°37'3 9.1
2018-Jun-05 23:56N 34°33' W 076°38'4 9.4
2018-Jun-05 23:30N 34°37' W 076°40'4 8.2
2018-Jun-05 23:00N 34°41' W 076°40'2 3.9
2018-Jun-05 22:30N 34°43' W 076°40'0 0.6
2018-Jun-05 22:00N 34°43' W 076°40'0 0.0
2018-Jun-05 21:30N 34°43' W 076°40'0 0.0
2018-Jun-05 21:00N 34°43' W 076°40'0 0.0
2018-Jun-05 20:30N 34°43' W 076°40'0 0.0
2018-Jun-05 20:00N 34°43' W 076°40'0 0.0
2018-Jun-05 19:30N 34°43' W 076°40'0 0.0
2018-Jun-05 19:00N 34°43' W 076°40'0 0.0
2018-Jun-05 18:30N 34°43' W 076°40'0 0.0
2018-Jun-05 18:00N 34°43' W 076°40'0 0.0
2018-Jun-05 17:30N 34°43' W 076°40'0 0.0
2018-Jun-05 17:00N 34°43' W 076°40'0 0.0
2018-Jun-05 16:30N 34°43' W 076°40'0 0.0
2018-Jun-05 16:00N 34°43' W 076°40'0 0.0
2018-Jun-05 15:30N 34°43' W 076°40'0 0.0
2018-Jun-05 15:00N 34°43' W 076°40'0 0.0
2018-Jun-05 14:30N 34°43' W 076°40'0 0.0
2018-Jun-05 14:00N 34°43' W 076°40'0 0.0
2018-Jun-05 13:30N 34°43' W 076°40'0 0.0
2018-Jun-05 13:00N 34°43' W 076°40'0 0.0
2018-Jun-05 12:30N 34°43' W 076°40'0 0.0
2018-Jun-05 12:00N 34°43' W 076°40'0 0.0
2018-Jun-05 11:30N 34°43' W 076°40'0 0.0
2018-Jun-05 11:00N 34°43' W 076°40'0 0.0
2018-Jun-05 10:30N 34°43' W 076°40'0 0.0
2018-Jun-05 10:00N 34°43' W 076°40'0 0.0
2018-Jun-05 09:30N 34°43' W 076°40'0 0.0
2018-Jun-05 09:00N 34°43' W 076°40'0 0.0
2018-Jun-05 08:30N 34°43' W 076°40'0 0.0
2018-Jun-05 08:00N 34°43' W 076°40'0 0.0
2018-Jun-05 07:30N 34°43' W 076°40'0 0.0
2018-Jun-05 07:00N 34°43' W 076°40'0 0.0
2018-Jun-05 06:30N 34°43' W 076°40'0 0.0
2018-Jun-05 06:00N 34°43' W 076°40'0 0.0
2018-Jun-05 05:30N 34°43' W 076°40'0 0.0
2018-Jun-05 05:00N 34°43' W 076°40'0 0.0
2018-Jun-05 04:30N 34°43' W 076°40'0 0.0
2018-Jun-05 04:00N 34°43' W 076°40'0 0.0
2018-Jun-05 03:30N 34°43' W 076°40'0 0.0
2018-Jun-05 03:00N 34°43' W 076°40'0 0.0
2018-Jun-05 02:30N 34°43' W 076°40'0 0.0
2018-Jun-05 01:57N 34°43' W 076°40'0 0.0
2018-Jun-05 01:30N 34°43' W 076°40'0 0.0
2018-Jun-05 01:00N 34°43' W 076°40'0 0.0
2018-Jun-05 00:30N 34°43' W 076°40'0 0.0
2018-Jun-05 00:00N 34°43' W 076°40'0 0.0
2018-Jun-04 23:30N 34°43' W 076°40'0 0.0
2018-Jun-04 23:00N 34°43' W 076°40'0 0.0
2018-Jun-04 22:30N 34°43' W 076°40'0 0.0
2018-Jun-04 22:00N 34°43' W 076°40'0 0.0
2018-Jun-04 21:30N 34°43' W 076°40'1 2.5
2018-Jun-04 21:00N 34°42' W 076°40'4 8.9
2018-Jun-04 20:30N 34°37' W 076°41'  
2018-May-30 22:43N 26°43' W 080°03'0 0.0
2018-May-30 22:28N 26°43' W 080°03'0 0.0
2018-May-30 21:58N 26°43' W 080°03'0 0.0
2018-May-30 21:28N 26°43' W 080°03'0 0.0
2018-May-30 20:58N 26°43' W 080°03'0 0.0
2018-May-30 20:28N 26°43' W 080°03'  
Track history (hours):
 
Tides and Currents Weather Stations Pressure Air Temp Water Temp Dewpoint Dewpoint Depression Visibility Wind Speed Wind Dir Waves Ship Positions

Graycious

Owner: Noble Marine LLC, Lighthouse Point, FL. More information available from US FCC via Universal Licensing System and Coast Guard Vessel Documentation Center.

Last reported at 2018-Jun-06 00:17 UTC. Time now 2018-Jun-24 22:31 UTC.
Position N 34°30' W 076°37'.
Warning: this ship's position is 18 days out of date.

Length 21 m.

Type: Sailing vessel. MMSI: 367732080.

Date/timePositionNaut miles runAvg speedWind from/ knotsBaromVisibWave heightAir tempDewpointWater temp
2018-Jun-06 00:17N 34°30' W 076°37'3 9.1
2018-Jun-05 23:56N 34°33' W 076°38'4 9.4
2018-Jun-05 23:30N 34°37' W 076°40'4 8.2
2018-Jun-05 23:00N 34°41' W 076°40'2 3.9
2018-Jun-05 22:30N 34°43' W 076°40'0 0.6
2018-Jun-05 22:00N 34°43' W 076°40'0 0.0
2018-Jun-05 21:30N 34°43' W 076°40'0 0.0
2018-Jun-05 21:00N 34°43' W 076°40'0 0.0
2018-Jun-05 20:30N 34°43' W 076°40'0 0.0
2018-Jun-05 20:00N 34°43' W 076°40'0 0.0
2018-Jun-05 19:30N 34°43' W 076°40'0 0.0
2018-Jun-05 19:00N 34°43' W 076°40'0 0.0
2018-Jun-05 18:30N 34°43' W 076°40'0 0.0
2018-Jun-05 18:00N 34°43' W 076°40'0 0.0
2018-Jun-05 17:30N 34°43' W 076°40'0 0.0
2018-Jun-05 17:00N 34°43' W 076°40'0 0.0
2018-Jun-05 16:30N 34°43' W 076°40'0 0.0
2018-Jun-05 16:00N 34°43' W 076°40'0 0.0
2018-Jun-05 15:30N 34°43' W 076°40'0 0.0
2018-Jun-05 15:00N 34°43' W 076°40'0 0.0
2018-Jun-05 14:30N 34°43' W 076°40'0 0.0
2018-Jun-05 14:00N 34°43' W 076°40'0 0.0
2018-Jun-05 13:30N 34°43' W 076°40'0 0.0
2018-Jun-05 13:00N 34°43' W 076°40'0 0.0
2018-Jun-05 12:30N 34°43' W 076°40'0 0.0
2018-Jun-05 12:00N 34°43' W 076°40'0 0.0
2018-Jun-05 11:30N 34°43' W 076°40'0 0.0
2018-Jun-05 11:00N 34°43' W 076°40'0 0.0
2018-Jun-05 10:30N 34°43' W 076°40'0 0.0
2018-Jun-05 10:00N 34°43' W 076°40'0 0.0
2018-Jun-05 09:30N 34°43' W 076°40'0 0.0
2018-Jun-05 09:00N 34°43' W 076°40'0 0.0
2018-Jun-05 08:30N 34°43' W 076°40'0 0.0
2018-Jun-05 08:00N 34°43' W 076°40'0 0.0
2018-Jun-05 07:30N 34°43' W 076°40'0 0.0
2018-Jun-05 07:00N 34°43' W 076°40'0 0.0
2018-Jun-05 06:30N 34°43' W 076°40'0 0.0
2018-Jun-05 06:00N 34°43' W 076°40'0 0.0
2018-Jun-05 05:30N 34°43' W 076°40'0 0.0
2018-Jun-05 05:00N 34°43' W 076°40'0 0.0
2018-Jun-05 04:30N 34°43' W 076°40'0 0.0
2018-Jun-05 04:00N 34°43' W 076°40'0 0.0
2018-Jun-05 03:30N 34°43' W 076°40'0 0.0
2018-Jun-05 03:00N 34°43' W 076°40'0 0.0
2018-Jun-05 02:30N 34°43' W 076°40'0 0.0
2018-Jun-05 01:57N 34°43' W 076°40'0 0.0
2018-Jun-05 01:30N 34°43' W 076°40'0 0.0
2018-Jun-05 01:00N 34°43' W 076°40'0 0.0
2018-Jun-05 00:30N 34°43' W 076°40'0 0.0
2018-Jun-05 00:00N 34°43' W 076°40'0 0.0
2018-Jun-04 23:30N 34°43' W 076°40'0 0.0
2018-Jun-04 23:00N 34°43' W 076°40'0 0.0
2018-Jun-04 22:30N 34°43' W 076°40'0 0.0
2018-Jun-04 22:00N 34°43' W 076°40'0 0.0
2018-Jun-04 21:30N 34°43' W 076°40'1 2.5
2018-Jun-04 21:00N 34°42' W 076°40'4 8.9
2018-Jun-04 20:30N 34°37' W 076°41'  
2018-May-30 22:43N 26°43' W 080°03'0 0.0
2018-May-30 22:28N 26°43' W 080°03'0 0.0
2018-May-30 21:58N 26°43' W 080°03'0 0.0
2018-May-30 21:28N 26°43' W 080°03'0 0.0
2018-May-30 20:58N 26°43' W 080°03'0 0.0
2018-May-30 20:28N 26°43' W 080°03'  

Dump ship's entire track history